Goosnargh, United Kingdom
Current Conditions -  °F | °C
As of 11:50 AM on Thursday 27 Nov 2014 (Local Time) from EGNO Reporting Station
Haze Haze  
Wind Chill:   Ceiling: 600
Heat Index:   Visibility: 3mi
Dew Point:   Wind: 5mph
Humidity: 100%   Direction: 150°SSE
Pressure: 29.56"   Gusts: NA
Location:  53.82°N, 2.67°W
Report Text: EGNO 271150Z 15004KT 5000 BR BKN006 08/08 Q1001
Loading
Personal Weather Stations






























Interactive Weather Map New forecast layout! Learn more

10-Day Weather Forecast

Advertisements
Track Severe Weather on mobile